CDT,Max TemperatureF,Mean TemperatureF,Min TemperatureF,Max Dew PointF,MeanDew PointF,Min DewpointF,Max Humidity, Mean Humidity, Min Humidity, Max Sea Level PressureIn, Mean Sea Level PressureIn, Min Sea Level PressureIn, Max VisibilityMiles, Mean VisibilityMiles, Min VisibilityMiles, Max Wind SpeedMPH, Mean Wind SpeedMPH, Max Gust SpeedMPH,PrecipitationIn, CloudCover, Events, WindDirDegrees
2013-7-1,82,68,53,55,52,48,88,57,30,30.17,30.15,30.12,10,10,9,18,6,25,0.00,0,,44
2013-7-2,82,70,57,57,51,45,94,55,26,30.15,30.11,30.05,10,10,8,21,5,28,0.00,1,,18
2013-7-3,82,70,59,59,55,50,94,59,35,30.09,30.04,29.98,10,10,7,13,7,14,0.00,1,,141
2013-7-4,86,73,60,59,56,54,94,57,33,30.02,29.99,29.94,10,10,9,18,10,26,0.00,1,,186
2013-7-5,89,76,64,61,59,57,77,55,36,29.97,29.94,29.89,10,10,10,22,13,30,0.00,0,,179
2013-7-6,91,80,69,64,62,59,73,55,38,29.95,29.90,29.85,10,10,10,22,15,32,0.00,0,,177
2013-7-7,91,80,69,70,66,63,78,60,43,29.93,29.89,29.86,10,10,9,18,11,25,0.00,1,,201
2013-7-8,93,81,69,72,68,63,94,68,36,29.99,29.96,29.91,10,10,6,22,5,31,0.00,1,,84
2013-7-9,93,83,71,73,71,68,94,73,44,29.96,29.92,29.88,10,10,5,15,8,24,0.02,1,Rain,236
2013-7-10,80,71,60,68,57,50,94,62,34,30.09,30.04,29.96,10,10,9,16,9,24,0.00,0,,354
2013-7-11,84,70,57,57,55,52,88,58,35,30.14,30.09,30.03,10,10,8,13,7,22,0.00,0,,134
2013-7-12,86,75,64,61,59,55,77,58,40,30.08,30.03,29.98,10,10,9,22,12,30,0.00,0,,162
2013-7-13,77,72,66,64,59,54,83,66,56,30.10,30.04,30.00,10,10,3,21,13,28,0.03,2,Rain,151
2013-7-14,84,74,64,64,62,61,88,66,45,30.21,30.14,30.08,10,10,10,15,10,22,0.00,0,,143
2013-7-15,87,76,66,70,66,61,88,69,52,30.26,30.22,30.17,10,10,8,16,7,20,0.00,2,,141
2013-7-16,91,81,71,72,70,66,94,71,46,30.27,30.24,30.22,10,10,9,12,7,17,0.00,1,,186
2013-7-17,93,81,69,72,69,66,94,68,41,30.32,30.26,30.18,10,10,7,12,5,18,0.00,1,,193
2013-7-18,91,80,69,70,68,66,94,66,43,30.19,30.06,29.92,10,10,8,22,10,30,0.00,0,,207
2013-7-19,89,76,62,72,65,59,88,63,38,29.95,29.89,29.84,10,10,3,17,10,24,0.05,1,Rain,289
2013-7-20,86,70,55,64,60,54,94,69,42,29.99,29.94,29.90,10,10,4,10,2,,0.00,0,,309
2013-7-21,84,75,66,66,63,59,94,71,48,29.95,29.88,29.82,10,10,8,16,6,22,0.00,1,,153
2013-7-22,91,78,64,73,67,61,100,79,46,29.87,29.79,29.69,10,9,1,24,9,38,0.42,1,Rain,191
2013-7-23,75,66,57,61,58,54,94,76,50,30.03,29.96,29.85,10,10,10,15,6,22,0.00,0,,8
2013-7-24,77,65,53,61,56,52,100,73,47,30.10,30.05,30.02,10,10,9,8,4,13,0.00,2,,138
2013-7-25,84,70,57,64,62,55,100,78,48,30.05,30.01,29.91,10,9,2,20,8,30,0.90,3,Rain,185
2013-7-26,69,63,57,64,57,52,100,76,56,30.08,30.02,29.95,10,9,2,22,9,30,0.00,6,,310
2013-7-27,68,58,48,52,47,43,100,71,43,30.10,30.05,29.99,10,10,10,16,9,24,0.00,3,,322
2013-7-28,69,58,48,55,48,45,94,71,43,30.08,30.03,29.98,10,10,10,14,7,20,0.00,1,Rain,323
2013-7-29,75,62,48,59,53,46,94,70,44,30.14,30.11,30.08,10,10,10,12,5,20,0.00,2,,148
2013-7-30,71,66,62,64,63,59,100,87,78,30.12,30.09,30.07,10,9,2,10,5,13,0.01,8,,120
2013-7-31,80,68,57,66,61,57,100,81,51,30.13,30.09,30.04,10,6,0,15,3,21,0.00,3,Fog,305